Time;durP1;ratioP1;P1;durP2;ratioP2;P2;SDS_P1;SDS_P2;PMS_P1;PMS_P2;Temp;Humidity;BMP_temperature;BMP_pressure;BME280_temperature;BME280_humidity;BME280_pressure;Samples;Min_cycle;Max_cycle;Signal;HPM_P1;HPM_P2
2022/03/01 00:00:18;;;;;;;1999.90;999.90;;;1.30;99.90;;;;;;5032376;28;20451;-70
2022/03/01 00:02:44;;;;;;;1999.90;999.90;;;1.30;99.90;;;;;;5046108;28;20454;-69
2022/03/01 00:05:11;;;;;;;1999.90;999.90;;;1.30;99.90;;;;;;5044527;28;20966;-69
2022/03/01 00:07:38;;;;;;;1999.90;999.90;;;1.30;99.90;;;;;;5049834;28;20954;-71
2022/03/01 00:10:06;;;;;;;1999.90;999.90;;;1.40;99.90;;;;;;5051589;28;20474;-69
2022/03/01 00:12:33;;;;;;;1999.90;999.90;;;1.50;99.90;;;;;;5053074;28;20516;-70
2022/03/01 00:15:01;;;;;;;1999.90;999.90;;;1.40;99.90;;;;;;5053816;28;20465;-69
2022/03/01 00:17:27;;;;;;;1999.90;999.90;;;1.30;99.90;;;;;;5053187;28;20799;-70
2022/03/01 00:19:54;;;;;;;1999.90;999.90;;;1.20;99.90;;;;;;5053090;28;20685;-70
2022/03/01 00:22:21;;;;;;;1999.90;999.90;;;1.30;99.90;;;;;;5053189;28;20447;-69
2022/03/01 00:24:48;;;;;;;1999.90;999.90;;;1.40;99.90;;;;;;5051950;28;20850;-70
2022/03/01 00:27:14;;;;;;;1999.90;999.90;;;1.50;99.90;;;;;;5051685;28;20443;-70
2022/03/01 00:29:41;;;;;;;1999.90;999.90;;;1.40;99.90;;;;;;5052766;28;20532;-70
2022/03/01 00:32:10;;;;;;;1999.90;999.90;;;1.30;99.90;;;;;;5051475;28;20449;-69
2022/03/01 00:34:37;;;;;;;1999.90;999.90;;;1.20;99.90;;;;;;5051641;28;20482;-70
2022/03/01 00:37:04;;;;;;;1999.90;999.90;;;0.90;99.90;;;;;;5053222;28;20443;-69
2022/03/01 00:39:31;;;;;;;1999.90;999.90;;;0.70;99.90;;;;;;5051103;28;20462;-70
2022/03/01 00:41:58;;;;;;;1999.90;999.90;;;0.50;99.90;;;;;;5051739;28;20461;-69
2022/03/01 00:44:24;;;;;;;1999.90;999.90;;;0.30;99.90;;;;;;5051567;28;20443;-70
2022/03/01 00:46:51;;;;;;;1999.90;999.90;;;0.00;99.90;;;;;;5052001;28;20450;-71
2022/03/01 00:49:19;;;;;;;1999.90;999.90;;;0.00;99.90;;;;;;5051186;28;20466;-70
2022/03/01 00:51:46;;;;;;;1999.90;999.90;;;0.10;99.90;;;;;;5052370;28;20992;-70
2022/03/01 00:54:12;;;;;;;1999.90;999.90;;;-0.30;99.90;;;;;;5051062;28;20538;-70
2022/03/01 00:56:39;;;;;;;1999.90;999.90;;;-0.30;99.90;;;;;;5052026;28;20447;-70
2022/03/01 00:59:07;;;;;;;1999.90;999.90;;;-0.40;99.90;;;;;;5051031;28;20470;-70
2022/03/01 01:01:34;;;;;;;1999.90;999.90;;;0.00;99.90;;;;;;5051582;28;20815;-71
2022/03/01 01:04:01;;;;;;;1999.90;999.90;;;0.00;99.90;;;;;;5051554;28;20504;-69
2022/03/01 01:06:29;;;;;;;1999.90;999.90;;;-0.60;99.90;;;;;;5051281;28;20446;-69
2022/03/01 01:08:55;;;;;;;1999.90;999.90;;;-0.50;99.90;;;;;;5052052;28;20462;-70
2022/03/01 01:11:22;;;;;;;1999.90;999.90;;;-0.70;99.90;;;;;;5051111;28;20450;-70
2022/03/01 01:13:49;;;;;;;1999.90;999.90;;;-0.60;99.90;;;;;;5051736;28;20555;-70
2022/03/01 01:16:16;;;;;;;1999.90;999.90;;;-0.90;99.90;;;;;;5050646;28;20950;-70
2022/03/01 01:18:43;;;;;;;1999.90;999.90;;;-0.70;99.90;;;;;;5050747;28;20528;-69
2022/03/01 01:21:10;;;;;;;1999.90;999.90;;;-0.50;99.90;;;;;;5051685;28;20459;-70
2022/03/01 01:23:39;;;;;;;1999.90;999.90;;;-1.00;99.90;;;;;;5051539;28;20452;-70
2022/03/01 01:26:06;;;;;;;1999.90;999.90;;;-0.60;99.90;;;;;;5050990;28;20799;-70
2022/03/01 01:28:32;;;;;;;1999.90;999.90;;;-1.10;99.90;;;;;;5051002;28;20478;-69
2022/03/01 01:30:59;;;;;;;1999.90;999.90;;;-1.20;99.90;;;;;;5050347;28;20950;-70
2022/03/01 01:33:26;;;;;;;1999.90;999.90;;;-0.60;99.90;;;;;;5049960;28;20539;-70
2022/03/01 01:35:52;;;;;;;1999.90;999.90;;;-0.90;99.90;;;;;;5051980;28;20446;-70
2022/03/01 01:38:19;;;;;;;1999.90;999.90;;;-1.20;99.90;;;;;;5051399;28;20466;-70
2022/03/01 01:40:47;;;;;;;1999.90;999.90;;;-0.70;99.90;;;;;;5050140;28;20442;-69
2022/03/01 01:43:14;;;;;;;1999.90;999.90;;;-1.30;99.90;;;;;;5051018;28;20446;-70
2022/03/01 01:45:40;;;;;;;1999.90;999.90;;;-1.30;99.90;;;;;;5050796;28;20446;-70
2022/03/01 01:48:07;;;;;;;1999.90;999.90;;;-1.10;99.90;;;;;;5050088;28;21173;-70
2022/03/01 01:50:35;;;;;;;1999.90;999.90;;;-1.20;99.90;;;;;;5051333;28;20492;-70
2022/03/01 01:53:02;;;;;;;1999.90;999.90;;;-1.30;99.90;;;;;;5051882;28;20453;-71
2022/03/01 01:55:29;;;;;;;1999.90;999.90;;;-0.70;99.90;;;;;;5050312;28;21040;-70
2022/03/01 01:57:58;;;;;;;1999.90;999.90;;;-1.30;99.90;;;;;;5050644;28;20442;-70
2022/03/01 02:00:26;;;;;;;1999.90;999.90;;;-1.40;99.90;;;;;;5050886;28;20446;-70
2022/03/01 02:02:53;;;;;;;1999.90;999.90;;;-1.10;99.90;;;;;;5051185;28;20853;-70
2022/03/01 02:05:19;;;;;;;1999.90;999.90;;;-1.30;99.90;;;;;;5051113;28;20492;-70
2022/03/01 02:07:48;;;;;;;1999.90;999.90;;;-1.60;99.90;;;;;;5031380;28;20505;-69
2022/03/01 02:10:16;;;;;;;1999.90;999.90;;;-1.60;99.90;;;;;;5029875;28;20443;-70
2022/03/01 02:12:44;;;;;;;1999.90;999.90;;;-1.80;99.90;;;;;;5049089;28;20457;-70
2022/03/01 02:15:13;;;;;;;1999.90;999.90;;;-1.80;99.90;;;;;;5050193;28;21008;-69
2022/03/01 02:17:41;;;;;;;1999.90;999.90;;;-1.80;99.90;;;;;;5050444;28;20454;-70
2022/03/01 02:20:12;;;;;;;1999.90;999.90;;;-1.90;99.90;;;;;;5070685;28;21010;-70
2022/03/01 02:22:39;;;;;;;1999.90;999.90;;;-1.90;99.90;;;;;;5073087;28;20847;-70
2022/03/01 02:25:07;;;;;;;1999.90;999.90;;;-1.30;99.90;;;;;;5066418;28;20458;-69
2022/03/01 02:27:34;;;;;;;1999.90;999.90;;;-2.00;99.90;;;;;;5049601;28;20519;-70
2022/03/01 02:30:00;;;;;;;1999.90;999.90;;;-1.30;99.90;;;;;;5049549;28;20478;-69
2022/03/01 02:32:27;;;;;;;1999.90;999.90;;;-2.00;99.90;;;;;;5049510;28;20450;-70
2022/03/01 02:34:54;;;;;;;1999.90;999.90;;;-2.00;99.90;;;;;;5049991;28;20474;-69
2022/03/01 02:37:22;;;;;;;1999.90;999.90;;;-1.20;99.90;;;;;;5049619;28;20469;-69
2022/03/01 02:39:49;;;;;;;1999.90;999.90;;;-2.10;99.90;;;;;;5048913;28;21017;-69
2022/03/01 02:42:15;;;;;;;1999.90;999.90;;;-2.20;99.90;;;;;;5049075;28;20481;-69
2022/03/01 02:44:42;;;;;;;1999.90;999.90;;;-2.20;99.90;;;;;;5049028;28;20935;-69
2022/03/01 02:47:09;;;;;;;1999.90;999.90;;;-2.10;99.90;;;;;;5049298;28;20857;-69
2022/03/01 02:49:35;;;;;;;1999.90;999.90;;;-2.20;99.90;;;;;;5049420;28;20900;-70
2022/03/01 02:52:02;;;;;;;1999.90;999.90;;;-1.50;99.90;;;;;;5049289;28;20520;-70
2022/03/01 02:54:31;;;;;;;1999.90;999.90;;;-2.10;99.90;;;;;;5049162;28;20536;-70
2022/03/01 02:57:00;;;;;;;1999.90;999.90;;;-1.70;99.90;;;;;;5049429;28;20450;-69
2022/03/01 02:59:28;;;;;;;1999.90;999.90;;;-1.70;99.90;;;;;;5049157;28;20970;-69
2022/03/01 03:01:55;;;;;;;1999.90;999.90;;;-2.40;99.90;;;;;;5048611;28;20462;-69
2022/03/01 03:04:21;;;;;;;1999.90;999.90;;;-2.40;99.90;;;;;;5049710;28;20446;-70
2022/03/01 03:06:49;;;;;;;1999.90;999.90;;;-1.90;99.90;;;;;;5050613;28;20446;-69
2022/03/01 03:09:16;;;;;;;1999.90;999.90;;;-2.40;99.90;;;;;;5049170;28;20485;-69
2022/03/01 03:11:44;;;;;;;1999.90;999.90;;;-2.30;99.90;;;;;;5048982;28;20507;-70
2022/03/01 03:14:10;;;;;;;1999.90;999.90;;;-2.40;99.90;;;;;;5049018;28;20470;-69
2022/03/01 03:16:37;;;;;;;1999.90;999.90;;;-2.50;99.90;;;;;;5049397;28;20447;-69
2022/03/01 03:19:04;;;;;;;1999.90;999.90;;;-2.50;99.90;;;;;;5049221;28;21044;-70
2022/03/01 03:21:30;;;;;;;1999.90;999.90;;;-1.90;99.90;;;;;;5050723;28;20451;-70
2022/03/01 03:23:57;;;;;;;1999.90;999.90;;;-2.50;99.90;;;;;;5048562;28;20587;-70
2022/03/01 03:26:24;;;;;;;1999.90;999.90;;;-2.60;99.90;;;;;;5048879;28;21289;-69
2022/03/01 03:28:52;;;;;;;1999.90;999.90;;;-2.40;99.90;;;;;;5048523;28;20482;-69
2022/03/01 03:31:19;;;;;;;1999.90;999.90;;;-2.60;99.90;;;;;;5049767;28;20456;-69
2022/03/01 03:33:46;;;;;;;1999.90;999.90;;;-2.50;99.90;;;;;;5052484;28;20507;-70
2022/03/01 03:36:12;;;;;;;1999.90;999.90;;;-2.40;99.90;;;;;;5054096;28;20434;-70
2022/03/01 03:38:39;;;;;;;1999.90;999.90;;;-1.80;99.90;;;;;;5052093;28;20467;-70
2022/03/01 03:41:05;;;;;;;1999.90;999.90;;;-2.00;99.90;;;;;;5052517;28;20449;-69
2022/03/01 03:43:32;;;;;;;1999.90;999.90;;;-2.40;99.90;;;;;;5052144;28;20445;-70
2022/03/01 03:46:00;;;;;;;1999.90;999.90;;;-2.40;99.90;;;;;;5052409;28;20480;-69
2022/03/01 03:48:27;;;;;;;1999.90;999.90;;;-2.10;99.90;;;;;;5051883;28;20496;-69
2022/03/01 03:50:54;;;;;;;1999.90;999.90;;;-2.50;99.90;;;;;;5052886;28;20453;-70
2022/03/01 03:53:21;;;;;;;1999.90;999.90;;;-2.60;99.90;;;;;;5051685;28;20447;-69
2022/03/01 03:55:48;;;;;;;1999.90;999.90;;;-2.60;99.90;;;;;;5052238;28;20539;-69
2022/03/01 03:58:14;;;;;;;1999.90;999.90;;;-2.60;99.90;;;;;;5051236;28;20524;-69
2022/03/01 04:00:41;;;;;;;1999.90;999.90;;;-2.50;99.90;;;;;;5051968;28;20519;-68
2022/03/01 04:03:09;;;;;;;1999.90;999.90;;;-2.30;99.90;;;;;;5051896;28;20540;-69
2022/03/01 04:05:36;;;;;;;1999.90;999.90;;;-2.60;99.90;;;;;;5052093;28;20804;-70
2022/03/01 04:08:03;;;;;;;1999.90;999.90;;;-2.60;99.90;;;;;;5052480;28;20807;-70
2022/03/01 04:10:30;;;;;;;1999.90;999.90;;;-2.60;99.90;;;;;;5051485;28;20504;-71
2022/03/01 04:12:57;;;;;;;1999.90;999.90;;;-2.10;99.90;;;;;;5052879;28;20446;-69
2022/03/01 04:15:23;;;;;;;1999.90;999.90;;;-2.60;99.90;;;;;;5052597;28;20843;-70
2022/03/01 04:17:50;;;;;;;1999.90;999.90;;;-2.60;99.90;;;;;;5052926;28;20889;-66
2022/03/01 04:20:21;;;;;;;1999.90;999.90;;;-2.50;99.90;;;;;;5052668;28;20533;-70
2022/03/01 04:22:48;;;;;;;1999.90;999.90;;;-2.60;99.90;;;;;;5052303;28;20943;-69
2022/03/01 04:25:15;;;;;;;1999.90;999.90;;;-2.60;99.90;;;;;;5051124;28;20548;-70
2022/03/01 04:27:42;;;;;;;1999.90;999.90;;;-2.80;99.90;;;;;;5051573;28;20450;-69
2022/03/01 04:30:11;;;;;;;1999.90;999.90;;;-2.90;99.90;;;;;;5051475;28;20486;-70
2022/03/01 04:32:38;;;;;;;1999.90;999.90;;;-2.90;99.90;;;;;;5052509;28;21034;-70
2022/03/01 04:35:05;;;;;;;1999.90;999.90;;;-2.90;99.90;;;;;;5052699;28;20536;-69
2022/03/01 04:37:33;;;;;;;1999.90;999.90;;;-2.80;99.90;;;;;;5051785;28;20447;-69
2022/03/01 04:40:00;;;;;;;1999.90;999.90;;;-2.80;99.90;;;;;;5051187;28;20466;-70
2022/03/01 04:42:27;;;;;;;1999.90;999.90;;;-2.80;99.90;;;;;;5050796;28;20542;-69
2022/03/01 04:44:53;;;;;;;1999.90;999.90;;;-2.80;99.90;;;;;;5051154;28;20446;-69
2022/03/01 04:47:20;;;;;;;1999.90;999.90;;;-2.20;99.90;;;;;;5051334;28;20454;-69
2022/03/01 04:49:47;;;;;;;1999.90;999.90;;;-2.80;99.90;;;;;;5052592;28;20474;-70
2022/03/01 04:52:13;;;;;;;1999.90;999.90;;;-2.80;99.90;;;;;;5052455;28;20442;-69
2022/03/01 04:54:41;;;;;;;1999.90;999.90;;;-2.20;99.90;;;;;;5052628;28;20532;-69
2022/03/01 04:57:08;;;;;;;1999.90;999.90;;;-2.80;99.90;;;;;;5052821;28;20508;-69
2022/03/01 04:59:35;;;;;;;1999.90;999.90;;;-2.70;99.90;;;;;;5052546;28;20470;-69
2022/03/01 05:02:01;;;;;;;1999.90;999.90;;;-2.90;99.90;;;;;;5052187;28;20454;-70
2022/03/01 05:04:28;;;;;;;1999.90;999.90;;;-3.00;99.90;;;;;;5052804;28;20875;-69
2022/03/01 05:06:55;;;;;;;1999.90;999.90;;;-3.00;99.90;;;;;;5052755;28;20462;-69
2022/03/01 05:09:22;;;;;;;1999.90;999.90;;;-2.30;99.90;;;;;;5053195;28;20469;-71
2022/03/01 05:11:51;;;;;;;1999.90;999.90;;;-2.30;99.90;;;;;;5052170;28;20947;-69
2022/03/01 05:14:19;;;;;;;1999.90;999.90;;;-3.00;99.90;;;;;;5052549;28;20973;-69
2022/03/01 05:16:46;;;;;;;1999.90;999.90;;;-3.00;99.90;;;;;;5052162;28;20496;-69
2022/03/01 05:19:13;;;;;;;1999.90;999.90;;;-2.50;99.90;;;;;;5052802;28;20513;-69
2022/03/01 05:21:40;;;;;;;1999.90;999.90;;;-3.20;99.90;;;;;;5052413;28;20450;-69
2022/03/01 05:24:07;;;;;;;1999.90;999.90;;;-3.20;99.90;;;;;;5052470;28;20450;-69
2022/03/01 05:26:34;;;;;;;1999.90;999.90;;;-3.20;99.90;;;;;;5052094;28;20446;-69
2022/03/01 05:29:02;;;;;;;1999.90;999.90;;;-2.50;99.90;;;;;;5051937;28;20482;-68
2022/03/01 05:31:29;;;;;;;1999.90;999.90;;;-3.10;99.90;;;;;;5051990;28;20507;-69
2022/03/01 05:33:56;;;;;;;1999.90;999.90;;;-3.10;99.90;;;;;;5052320;28;20442;-70
2022/03/01 05:36:22;;;;;;;1999.90;999.90;;;-3.00;99.90;;;;;;5051717;28;20478;-68
2022/03/01 05:38:49;;;;;;;1999.90;999.90;;;-2.40;99.90;;;;;;5052301;28;20474;-69
2022/03/01 05:41:16;;;;;;;1999.90;999.90;;;-3.00;99.90;;;;;;5051600;28;20689;-69
2022/03/01 05:43:43;;;;;;;1999.90;999.90;;;-3.10;99.90;;;;;;5051819;28;20934;-69
2022/03/01 05:46:11;;;;;;;1999.90;999.90;;;-2.30;99.90;;;;;;5051555;28;20477;-69
2022/03/01 05:48:37;;;;;;;1999.90;999.90;;;-2.50;99.90;;;;;;5052183;28;20466;-69
2022/03/01 05:51:06;;;;;;;1999.90;999.90;;;-3.30;99.90;;;;;;5051417;28;20564;-69
2022/03/01 05:53:33;;;;;;;1999.90;999.90;;;-3.30;99.90;;;;;;5051792;28;20515;-69
2022/03/01 05:55:59;;;;;;;1999.90;999.90;;;-3.30;99.90;;;;;;5051468;28;20474;-70
2022/03/01 05:58:26;;;;;;;1999.90;999.90;;;-3.20;99.90;;;;;;5051406;28;20512;-69
2022/03/01 06:00:53;;;;;;;1999.90;999.90;;;-3.30;99.90;;;;;;5050749;28;20450;-69
2022/03/01 06:03:21;;;;;;;1999.90;999.90;;;-2.70;99.90;;;;;;5051530;28;20447;-69
2022/03/01 06:05:47;;;;;;;1999.90;999.90;;;-3.20;99.90;;;;;;5051440;28;20649;-69
2022/03/01 06:08:14;;;;;;;1999.90;999.90;;;-3.30;99.90;;;;;;5051294;28;21181;-69
2022/03/01 06:10:40;;;;;;;1999.90;999.90;;;-3.30;99.90;;;;;;5051344;28;20503;-69
2022/03/01 06:13:07;;;;;;;1999.90;999.90;;;-3.30;99.90;;;;;;5051041;28;20496;-69
2022/03/01 06:15:34;;;;;;;1999.90;999.90;;;-3.20;99.90;;;;;;5051591;28;20478;-69
2022/03/01 06:18:00;;;;;;;1999.90;999.90;;;-3.20;99.90;;;;;;5051750;28;20828;-69
2022/03/01 06:20:28;;;;;;;1999.90;999.90;;;-3.20;99.90;;;;;;5051069;28;20861;-70
2022/03/01 06:22:56;;;;;;;1999.90;999.90;;;-3.30;99.90;;;;;;5051367;28;20500;-69
2022/03/01 06:25:23;;;;;;;1999.90;999.90;;;-3.30;99.90;;;;;;5051789;28;20500;-69
2022/03/01 06:27:52;;;;;;;1999.90;999.90;;;-3.30;99.90;;;;;;5050082;28;20450;-69
2022/03/01 06:30:19;;;;;;;1999.90;999.90;;;-3.20;99.90;;;;;;5073745;22;20581;-63
2022/03/01 06:32:45;;;;;;;1999.90;999.90;;;-3.30;99.90;;;;;;5048736;28;20450;-65
2022/03/01 06:35:12;;;;;;;1999.90;999.90;;;-3.30;99.90;;;;;;5054146;28;20474;-66
2022/03/01 06:37:40;;;;;;;1999.90;999.90;;;-3.20;99.90;;;;;;5053696;28;20446;-65
2022/03/01 06:40:09;;;;;;;1999.90;999.90;;;-2.90;99.90;;;;;;5054266;28;20883;-62
2022/03/01 06:42:36;;;;;;;1999.90;999.90;;;-2.90;99.90;;;;;;5053599;28;20915;-64
2022/03/01 06:45:02;;;;;;;1999.90;999.90;;;-2.80;99.90;;;;;;5054338;28;20435;-67
2022/03/01 06:47:29;;;;;;;1999.90;999.90;;;-2.70;99.90;;;;;;5053798;28;20524;-67
2022/03/01 06:49:56;;;;;;;1999.90;999.90;;;-2.60;99.90;;;;;;5053585;28;20473;-67
2022/03/01 06:52:23;;;;;;;1999.90;999.90;;;-2.60;99.90;;;;;;5054031;28;20454;-64
2022/03/01 06:54:51;;;;;;;1999.90;999.90;;;-2.50;99.90;;;;;;5052777;28;20958;-65
2022/03/01 06:57:18;;;;;;;1999.90;999.90;;;-2.40;99.90;;;;;;5040782;28;20966;-65
2022/03/01 06:59:45;;;;;;;1999.90;999.90;;;-2.20;99.90;;;;;;5052802;28;20470;-67
2022/03/01 07:02:12;;;;;;;1999.90;999.90;;;-1.90;99.90;;;;;;5053608;28;20453;-68
2022/03/01 07:04:38;;;;;;;1999.90;999.90;;;-1.90;99.90;;;;;;5054515;28;20457;-67
2022/03/01 07:07:06;;;;;;;1999.90;999.90;;;-1.50;99.90;;;;;;5057467;28;21004;-67
2022/03/01 07:09:32;;;;;;;1999.90;999.90;;;-1.40;99.90;;;;;;5057633;28;20494;-67
2022/03/01 07:12:00;;;;;;;1999.90;999.90;;;-0.80;99.90;;;;;;5056587;28;21021;-66
2022/03/01 07:14:27;;;;;;;1999.90;999.90;;;-0.90;99.90;;;;;;5057585;28;20450;-67
2022/03/01 07:16:54;;;;;;;1999.90;999.90;;;-0.60;99.90;;;;;;5056973;28;21002;-67
2022/03/01 07:19:21;;;;;;;1999.90;999.90;;;-0.50;99.90;;;;;;5055633;28;20873;-66
2022/03/01 07:21:47;;;;;;;1999.90;999.90;;;-0.20;99.90;;;;;;5053594;28;20592;-67
2022/03/01 07:24:14;;;;;;;1999.90;999.90;;;-0.20;99.90;;;;;;5056232;28;20446;-66
2022/03/01 07:26:40;;;;;;;1999.90;999.90;;;0.10;99.90;;;;;;5054775;28;20458;-67
2022/03/01 07:29:08;;;;;;;1999.90;999.90;;;0.10;99.90;;;;;;5055560;28;20977;-66
2022/03/01 07:31:35;;;;;;;1999.90;999.90;;;0.30;99.90;;;;;;5052494;28;20435;-66
2022/03/01 07:34:03;;;;;;;1999.90;999.90;;;0.40;99.90;;;;;;5055900;28;20458;-66
2022/03/01 07:36:30;;;;;;;1999.90;999.90;;;0.50;99.90;;;;;;5045653;28;20513;-66
2022/03/01 07:38:56;;;;;;;1999.90;999.90;;;0.80;99.90;;;;;;5056682;28;20534;-70
2022/03/01 07:41:23;;;;;;;1999.90;999.90;;;0.70;99.90;;;;;;5052610;28;20469;-67
2022/03/01 07:43:50;;;;;;;1999.90;999.90;;;0.90;99.90;;;;;;5050277;28;20458;-67
2022/03/01 07:46:18;;;;;;;1999.90;999.90;;;1.00;99.90;;;;;;5056249;28;20544;-67
2022/03/01 07:48:44;;;;;;;1999.90;999.90;;;1.10;99.90;;;;;;5055774;28;20450;-68
2022/03/01 07:51:11;;;;;;;1999.90;999.90;;;1.10;99.90;;;;;;5055376;28;21009;-66
2022/03/01 07:53:38;;;;;;;1999.90;999.90;;;1.40;99.90;;;;;;5056186;28;20947;-67
2022/03/01 07:56:05;;;;;;;1999.90;999.90;;;1.30;99.90;;;;;;5056162;28;20477;-69
2022/03/01 07:58:32;;;;;;;1999.90;999.90;;;1.40;99.90;;;;;;5056402;28;20450;-67
2022/03/01 08:00:59;;;;;;;1999.90;999.90;;;1.70;99.90;;;;;;5056260;28;20520;-67
2022/03/01 08:03:27;;;;;;;1999.90;999.90;;;1.80;99.90;;;;;;5054701;28;20447;-67
2022/03/01 08:05:54;;;;;;;1999.90;999.90;;;2.00;99.90;;;;;;5054311;28;20930;-68
2022/03/01 08:08:21;;;;;;;1999.90;999.90;;;2.20;99.90;;;;;;5054422;28;20935;-68
2022/03/01 08:10:49;;;;;;;1999.90;999.90;;;2.40;99.90;;;;;;5055582;28;20466;-67
2022/03/01 08:13:16;;;;;;;1999.90;999.90;;;2.60;99.90;;;;;;5055422;28;20446;-67
2022/03/01 08:15:43;;;;;;;1999.90;999.90;;;2.90;99.90;;;;;;5055469;28;20489;-71
2022/03/01 08:18:09;;;;;;;1999.90;999.90;;;3.00;99.90;;;;;;5054992;28;20446;-67
2022/03/01 08:20:37;;;;;;;1999.90;999.90;;;3.20;99.90;;;;;;5055302;28;20466;-68
2022/03/01 08:23:04;;;;;;;1999.90;999.90;;;3.40;99.90;;;;;;5055157;28;20454;-67
2022/03/01 08:25:31;;;;;;;1999.90;999.90;;;3.40;99.90;;;;;;5055449;28;20450;-68
2022/03/01 08:27:58;;;;;;;1999.90;999.90;;;3.50;99.90;;;;;;5055516;28;20485;-67
2022/03/01 08:30:26;;;;;;;1999.90;999.90;;;3.70;99.90;;;;;;5054712;28;20477;-67
2022/03/01 08:32:53;;;;;;;1999.90;999.90;;;4.10;99.90;;;;;;5053933;28;20500;-66
2022/03/01 08:35:20;;;;;;;1999.90;999.90;;;4.30;99.90;;;;;;5053904;28;20540;-67
2022/03/01 08:37:50;;;;;;;1999.90;999.90;;;4.20;99.90;;;;;;5053610;28;20457;-66
2022/03/01 08:40:18;;;;;;;1999.90;999.90;;;4.40;99.90;;;;;;5052697;28;20474;-66
2022/03/01 08:42:46;;;;;;;1999.90;999.90;;;4.30;99.90;;;;;;5054179;28;20512;-66
2022/03/01 08:45:13;;;;;;;1999.90;999.90;;;4.30;99.90;;;;;;5055176;28;20447;-66
2022/03/01 08:47:41;;;;;;;1999.90;999.90;;;4.40;99.90;;;;;;5054004;28;20468;-67
2022/03/01 08:50:09;;;;;;;1999.90;999.90;;;4.40;99.90;;;;;;5053282;28;20462;-64
2022/03/01 08:52:36;;;;;;;1999.90;999.90;;;4.60;99.90;;;;;;5033436;28;20443;-67
2022/03/01 08:55:04;;;;;;;1999.90;999.90;;;4.80;99.90;;;;;;5033364;28;20525;-67
2022/03/01 08:57:31;;;;;;;1999.90;999.90;;;5.00;99.90;;;;;;5033057;28;20483;-67
2022/03/01 08:59:57;;;;;;;1999.90;999.90;;;5.10;99.90;;;;;;5032889;28;20471;-67
2022/03/01 09:02:24;;;;;;;1999.90;999.90;;;5.10;99.90;;;;;;5032790;28;21109;-66
2022/03/01 09:04:51;;;;;;;1999.90;999.90;;;5.10;99.90;;;;;;5036747;28;20796;-67
2022/03/01 09:07:17;;;;;;;1999.90;999.90;;;5.40;99.90;;;;;;5052414;28;20447;-67
2022/03/01 09:09:44;;;;;;;1999.90;999.90;;;5.20;99.90;;;;;;5052966;28;20463;-65
2022/03/01 09:12:12;;;;;;;1999.90;999.90;;;5.30;99.90;;;;;;5052359;28;20996;-67
2022/03/01 09:14:39;;;;;;;1999.90;999.90;;;5.40;99.90;;;;;;5052582;28;20873;-67
2022/03/01 09:17:06;;;;;;;1999.90;999.90;;;5.40;99.90;;;;;;5052582;28;20484;-66
2022/03/01 09:19:32;;;;;;;1999.90;999.90;;;5.70;99.90;;;;;;5052206;28;20524;-66
2022/03/01 09:21:59;;;;;;;1999.90;999.90;;;5.60;99.90;;;;;;5052130;28;20442;-67
2022/03/01 09:24:26;;;;;;;1999.90;999.90;;;5.70;99.90;;;;;;5052565;28;20447;-67
2022/03/01 09:26:52;;;;;;;1999.90;999.90;;;5.70;99.90;;;;;;5052515;28;20442;-66
2022/03/01 09:29:20;;;;;;;1999.90;999.90;;;5.70;98.80;;;;;;5052354;28;20442;-67
2022/03/01 09:31:47;;;;;;;1999.90;999.90;;;5.80;98.30;;;;;;5052017;28;20442;-66
2022/03/01 09:34:14;;;;;;;1999.90;999.90;;;5.80;97.30;;;;;;5052458;28;20446;-67
2022/03/01 09:36:41;;;;;;;1999.90;999.90;;;6.00;96.80;;;;;;5053607;28;20482;-67
2022/03/01 09:39:07;;;;;;;1999.90;999.90;;;6.10;96.60;;;;;;5053014;28;20521;-66
2022/03/01 09:41:37;;;;;;;1999.90;999.90;;;6.10;96.70;;;;;;5051942;28;20515;-66
2022/03/01 09:44:04;;;;;;;1999.90;999.90;;;6.10;97.10;;;;;;5052065;28;21002;-66
2022/03/01 09:46:33;;;;;;;1999.90;999.90;;;6.20;95.60;;;;;;5052099;28;20851;-66
2022/03/01 09:49:00;;;;;;;1999.90;999.90;;;6.10;96.20;;;;;;5052178;28;20446;-66
2022/03/01 09:51:27;;;;;;;1999.90;999.90;;;6.30;96.50;;;;;;5052174;28;20458;-66
2022/03/01 09:53:55;;;;;;;1999.90;999.90;;;6.50;95.30;;;;;;5039029;28;20451;-69
2022/03/01 09:56:22;;;;;;;1999.90;999.90;;;6.50;95.00;;;;;;5032746;28;20865;-66
2022/03/01 09:58:51;;;;;;;1999.90;999.90;;;6.50;96.10;;;;;;5032130;28;20454;-67
2022/03/01 10:01:19;;;;;;;1999.90;999.90;;;6.60;95.00;;;;;;5032986;28;20494;-70
2022/03/01 10:03:48;;;;;;;1999.90;999.90;;;6.80;94.60;;;;;;5032369;28;20447;-66
2022/03/01 10:06:16;;;;;;;1999.90;999.90;;;6.60;94.90;;;;;;5032107;28;20456;-66
2022/03/01 10:08:43;;;;;;;1999.90;999.90;;;6.80;93.70;;;;;;5051666;28;20508;-67
2022/03/01 10:11:11;;;;;;;1999.90;999.90;;;6.60;95.90;;;;;;5051014;28;20482;-66
2022/03/01 10:13:39;;;;;;;1999.90;999.90;;;7.00;93.60;;;;;;5052906;28;20450;-66
2022/03/01 10:16:07;;;;;;;1999.90;999.90;;;7.10;91.70;;;;;;5053758;28;20454;-67
2022/03/01 10:18:37;;;;;;;1999.90;999.90;;;7.10;90.90;;;;;;5053613;28;20450;-67
2022/03/01 10:21:09;;;;;;;1999.90;999.90;;;7.00;90.40;;;;;;5052672;28;20470;-63
2022/03/01 10:23:36;;;;;;;1999.90;999.90;;;6.90;91.20;;;;;;5051601;28;20533;-67
2022/03/01 10:26:13;;;;;;;1999.90;999.90;;;7.00;93.00;;;;;;5053179;28;20871;-67
2022/03/01 10:28:41;;;;;;;1999.90;999.90;;;7.10;91.50;;;;;;5052171;28;20525;-67
2022/03/01 10:31:13;;;;;;;1999.90;999.90;;;7.10;91.40;;;;;;5051018;28;20624;-67
2022/03/01 10:33:40;;;;;;;1999.90;999.90;;;7.20;91.20;;;;;;5051376;28;20457;-67
2022/03/01 10:36:08;;;;;;;1999.90;999.90;;;7.20;92.00;;;;;;5050713;28;20482;-67
2022/03/01 10:38:38;;;;;;;1999.90;999.90;;;7.30;93.30;;;;;;5051356;28;20446;-67
2022/03/01 10:41:05;;;;;;;1999.90;999.90;;;7.40;93.50;;;;;;5053311;28;20478;-67
2022/03/01 10:43:32;;;;;;;1999.90;999.90;;;7.50;93.70;;;;;;5055062;28;20855;-67
2022/03/01 10:46:02;;;;;;;1999.90;999.90;;;7.70;93.90;;;;;;5055042;28;20954;-67
2022/03/01 10:48:34;;;;;;;1999.90;999.90;;;7.70;92.30;;;;;;5055343;28;20450;-67
2022/03/01 10:51:03;;;;;;;1999.90;999.90;;;7.70;92.30;;;;;;5054939;28;20472;-67
2022/03/01 10:53:33;;;;;;;1999.90;999.90;;;7.80;91.80;;;;;;5054958;28;20446;-67
2022/03/01 10:56:04;;;;;;;1999.90;999.90;;;8.10;89.50;;;;;;5054199;28;20834;-67
2022/03/01 10:58:31;;;;;;;1999.90;999.90;;;8.20;90.60;;;;;;5043056;28;20793;-67
2022/03/01 11:00:58;;;;;;;1999.90;999.90;;;8.40;90.80;;;;;;5054670;28;20528;-64
2022/03/01 11:03:25;;;;;;;1999.90;999.90;;;8.40;90.30;;;;;;5055183;28;20454;-62
2022/03/01 11:05:55;;;;;;;1999.90;999.90;;;8.50;86.30;;;;;;5055230;28;20450;-67
2022/03/01 11:08:23;;;;;;;1999.90;999.90;;;9.10;84.50;;;;;;5053790;28;20530;-68
2022/03/01 11:10:52;;;;;;;1999.90;999.90;;;9.50;79.60;;;;;;5052598;28;20514;-66
2022/03/01 11:13:22;;;;;;;1999.90;999.90;;;9.40;79.30;;;;;;5054502;28;20536;-65
2022/03/01 11:16:09;;;;;;;1999.90;999.90;;;9.50;81.40;;;;;;5053349;28;20454;-67
2022/03/01 11:18:46;;;;;;;1999.90;999.90;;;9.50;81.60;;;;;;5031315;28;20999;-68
2022/03/01 11:21:15;;;;;;;1999.90;999.90;;;10.10;82.50;;;;;;5054778;28;20868;-68
2022/03/01 11:23:43;;;;;;;1999.90;999.90;;;11.10;75.40;;;;;;5051471;28;20442;-67
2022/03/01 11:26:13;;;;;;;1999.90;999.90;;;11.00;74.60;;;;;;5049851;28;20439;-66
2022/03/01 11:28:45;;;;;;;1999.90;999.90;;;10.80;74.80;;;;;;5046128;28;20488;-67
2022/03/01 11:31:24;;;;;;;1999.90;999.90;;;10.50;73.80;;;;;;5049659;28;20481;-62
2022/03/01 11:33:55;;;;;;;1999.90;999.90;;;10.40;76.20;;;;;;5054261;28;20492;-66
2022/03/01 11:36:23;;;;;;;1999.90;999.90;;;10.00;76.30;;;;;;5053973;28;20451;-66
2022/03/01 11:38:49;;;;;;;1999.90;999.90;;;9.50;78.50;;;;;;5054434;28;20446;-67
2022/03/01 11:41:22;;;;;;;1999.90;999.90;;;9.90;77.80;;;;;;5053913;28;20478;-66
2022/03/01 11:43:54;;;;;;;1999.90;999.90;;;9.70;75.30;;;;;;5054216;28;20446;-66
2022/03/01 11:46:21;;;;;;;1999.90;999.90;;;9.70;77.70;;;;;;5055159;28;20454;-66
2022/03/01 11:48:52;;;;;;;1999.90;999.90;;;9.70;81.20;;;;;;5054720;28;21126;-66
2022/03/01 11:51:19;;;;;;;1999.90;999.90;;;10.00;76.80;;;;;;5053359;28;20515;-66
2022/03/01 11:53:49;;;;;;;1999.90;999.90;;;10.00;74.80;;;;;;5053137;28;21080;-65
2022/03/01 11:56:19;;;;;;;1999.90;999.90;;;9.90;77.50;;;;;;5053876;28;20976;-66
2022/03/01 11:58:50;;;;;;;1999.90;999.90;;;9.90;76.20;;;;;;5053687;28;20870;-65
2022/03/01 12:01:22;;;;;;;1999.90;999.90;;;9.80;77.30;;;;;;5053735;28;20481;-66
2022/03/01 12:03:51;;;;;;;1999.90;999.90;;;9.90;76.70;;;;;;5054711;28;20521;-66